This is the latest recevied weather packets stored in our database for station/object K4GSL. If no packets are shown the sender has not sent any weather packets the latest 10 day(s).
| Time | Temp. | Humidity | Pressure | Rain* | Wind** | Luminosity | Snow |
|---|---|---|---|---|---|---|---|
| 1777754756 | 16.11° C | 78% | 1018.2 hPa | 0 mm | - | 486 W/m² | - |
| 1777754454 | 16.67° C | 77% | 1018 hPa | 0 mm | - | 370 W/m² | - |
| 1777754151 | 16.11° C | 78% | 1018.1 hPa | 0 mm | - | 324 W/m² | - |
| 1777753848 | 16.11° C | 78% | 1018.2 hPa | 0 mm | - | 323 W/m² | - |
| 1777753543 | 16.11° C | 77% | 1018.3 hPa | 0 mm | - | 255 W/m² | - |
| 1777753242 | 16.67° C | 75% | 1018.4 hPa | 0 mm | - | 368 W/m² | - |
| 1777752938 | 15.56° C | 79% | 1018.4 hPa | 0 mm | - | 294 W/m² | - |
| 1777752634 | 16.11° C | 78% | 1018.5 hPa | 0 mm | - | 201 W/m² | - |
| 1777752330 | 16.11° C | 78% | 1018.4 hPa | 0 mm | - | 267 W/m² | - |
| 1777752029 | 16.67° C | 76% | 1018.7 hPa | 0 mm | - | 320 W/m² | - |
| 1777751726 | 16.67° C | 77% | 1018.6 hPa | 0 mm | - | 485 W/m² | - |
| 1777751421 | 15.56° C | 80% | 1018.6 hPa | 0 mm | - | 636 W/m² | - |
| 1777751118 | 16.11° C | 79% | 1018.6 hPa | 0 mm | - | 255 W/m² | - |
| 1777750814 | 16.11° C | 78% | 1018.7 hPa | 0 mm | - | 318 W/m² | - |
| 1777750512 | 15.56° C | 79% | 1018.9 hPa | 0 mm | - | 335 W/m² | - |
| 1777750209 | 14.44° C | 82% | 1018.8 hPa | 0 mm | - | 330 W/m² | - |
| 1777749904 | 15° C | 80% | 1019.1 hPa | 0 mm | - | 300 W/m² | - |
| 1777749602 | 15° C | 80% | 1018.9 hPa | 0 mm | - | 380 W/m² | - |
| 1777749299 | 14.44° C | 82% | 1019 hPa | 0 mm | - | 212 W/m² | - |
| 1777748996 | 14.44° C | 81% | 1019.1 hPa | 0 mm | - | 130 W/m² | - |
| 1777748694 | 14.44° C | 81% | 1019.2 hPa | 0 mm | - | 131 W/m² | - |
| 1777748390 | 14.44° C | 81% | 1019.4 hPa | 0 mm | - | 140 W/m² | - |
| 1777748086 | 14.44° C | 82% | 1019.3 hPa | 0 mm | - | 144 W/m² | - |
| 1777747783 | 14.44° C | 81% | 1019.2 hPa | 0 mm | - | 140 W/m² | - |
| 1777747478 | 14.44° C | 81% | 1019.2 hPa | 0 mm | - | 220 W/m² | - |
* Rain latest hour (hover to see other rain measurements)
** Current wind speed in m/s (hover to see current wind gust speed)